sensor_id;sensor_type;location;lat;lon;timestamp;pressure;altitude;pressure_sealevel;temperature;humidity
51359;BME280;37448;51.588;7.248;2023-04-27T00:00:31;101365.66;;;3.44;75.35
51359;BME280;37448;51.588;7.248;2023-04-27T00:02:31;101367.34;;;3.42;75.47
51359;BME280;37448;51.588;7.248;2023-04-27T00:04:32;101367.34;;;3.42;75.36
51359;BME280;37448;51.588;7.248;2023-04-27T00:06:32;101369.09;;;3.42;75.83
51359;BME280;37448;51.588;7.248;2023-04-27T00:08:33;101367.25;;;3.36;76.31
51359;BME280;37448;51.588;7.248;2023-04-27T00:10:34;101365.38;;;3.29;76.04
51359;BME280;37448;51.588;7.248;2023-04-27T00:12:34;101361.91;;;3.28;75.84
51359;BME280;37448;51.588;7.248;2023-04-27T00:14:35;101361.06;;;3.29;76.18
51359;BME280;37448;51.588;7.248;2023-04-27T00:16:35;101373.13;;;3.29;76.13
51359;BME280;37448;51.588;7.248;2023-04-27T00:18:35;101369.66;;;3.27;76.73
51359;BME280;37448;51.588;7.248;2023-04-27T00:20:36;101372.22;;;3.27;76.82
51359;BME280;37448;51.588;7.248;2023-04-27T00:22:39;101372.09;;;3.21;76.71
51359;BME280;37448;51.588;7.248;2023-04-27T00:24:40;101370.34;;;3.20;76.50
51359;BME280;37448;51.588;7.248;2023-04-27T00:26:41;101372.84;;;3.16;76.15
51359;BME280;37448;51.588;7.248;2023-04-27T00:28:41;101376.28;;;3.14;76.39
51359;BME280;37448;51.588;7.248;2023-04-27T00:30:41;101371.84;;;3.08;76.32
51359;BME280;37448;51.588;7.248;2023-04-27T00:32:42;101376.91;;;3.04;76.85
51359;BME280;37448;51.588;7.248;2023-04-27T00:34:42;101369.94;;;3.01;76.58
51359;BME280;37448;51.588;7.248;2023-04-27T00:36:43;101382.84;;;3.01;76.69
51359;BME280;37448;51.588;7.248;2023-04-27T00:38:43;101375.03;;;2.96;76.52
51359;BME280;37448;51.588;7.248;2023-04-27T00:40:44;101386.16;;;2.94;76.95
51359;BME280;37448;51.588;7.248;2023-04-27T00:42:44;101374.91;;;2.92;76.26
51359;BME280;37448;51.588;7.248;2023-04-27T00:44:45;101389.44;;;2.86;76.59
51359;BME280;37448;51.588;7.248;2023-04-27T00:46:46;101379.88;;;2.82;77.41
51359;BME280;37448;51.588;7.248;2023-04-27T00:48:47;101383.31;;;2.81;77.55
51359;BME280;37448;51.588;7.248;2023-04-27T00:50:47;101388.47;;;2.81;77.88
51359;BME280;37448;51.588;7.248;2023-04-27T00:52:48;101386.72;;;2.80;77.26
51359;BME280;37448;51.588;7.248;2023-04-27T00:54:50;101390.22;;;2.82;77.42
51359;BME280;37448;51.588;7.248;2023-04-27T00:56:51;101392.81;;;2.84;77.10
51359;BME280;37448;51.588;7.248;2023-04-27T00:58:51;101394.53;;;2.83;77.92
51359;BME280;37448;51.588;7.248;2023-04-27T01:00:52;101386.78;;;2.83;77.90
51359;BME280;37448;51.588;7.248;2023-04-27T01:02:54;101388.47;;;2.81;77.90
51359;BME280;37448;51.588;7.248;2023-04-27T01:04:55;101384.16;;;2.80;77.13
51359;BME280;37448;51.588;7.248;2023-04-27T01:06:55;101384.97;;;2.79;77.74
51359;BME280;37448;51.588;7.248;2023-04-27T01:08:56;101396.09;;;2.77;77.34
51359;BME280;37448;51.588;7.248;2023-04-27T01:10:57;101393.47;;;2.75;77.12
51359;BME280;37448;51.588;7.248;2023-04-27T01:12:57;101391.66;;;2.71;77.87
51359;BME280;37448;51.588;7.248;2023-04-27T01:14:58;101389.91;;;2.68;77.89
51359;BME280;37448;51.588;7.248;2023-04-27T01:16:58;101398.41;;;2.66;78.30
51359;BME280;37448;51.588;7.248;2023-04-27T01:18:58;101406.94;;;2.62;78.09
51359;BME280;37448;51.588;7.248;2023-04-27T01:20:59;101413.72;;;2.58;77.59
51359;BME280;37448;51.588;7.248;2023-04-27T01:22:59;101407.66;;;2.56;77.55
51359;BME280;37448;51.588;7.248;2023-04-27T01:25:00;101414.53;;;2.57;78.03
51359;BME280;37448;51.588;7.248;2023-04-27T01:27:00;101410.22;;;2.54;77.90
51359;BME280;37448;51.588;7.248;2023-04-27T01:29:01;101408.47;;;2.53;77.84
51359;BME280;37448;51.588;7.248;2023-04-27T01:31:02;101402.47;;;2.54;78.88
51359;BME280;37448;51.588;7.248;2023-04-27T01:33:02;101410.16;;;2.53;77.81
51359;BME280;37448;51.588;7.248;2023-04-27T01:35:03;101412.66;;;2.50;78.84
51359;BME280;37448;51.588;7.248;2023-04-27T01:37:03;101409.25;;;2.51;78.52
51359;BME280;37448;51.588;7.248;2023-04-27T01:39:04;101413.63;;;2.53;78.71
51359;BME280;37448;51.588;7.248;2023-04-27T01:41:08;101411.94;;;2.55;78.71
51359;BME280;37448;51.588;7.248;2023-04-27T01:43:08;101412.81;;;2.56;79.09
51359;BME280;37448;51.588;7.248;2023-04-27T01:45:09;101413.72;;;2.58;79.15
51359;BME280;37448;51.588;7.248;2023-04-27T01:47:11;101416.28;;;2.58;79.11
51359;BME280;37448;51.588;7.248;2023-04-27T01:49:11;101410.28;;;2.59;79.17
51359;BME280;37448;51.588;7.248;2023-04-27T01:51:11;101411.19;;;2.60;79.53
51359;BME280;37448;51.588;7.248;2023-04-27T01:53:12;101418.91;;;2.60;79.09
51359;BME280;37448;51.588;7.248;2023-04-27T01:55:12;101418.84;;;2.56;78.94
51359;BME280;37448;51.588;7.248;2023-04-27T01:57:13;101418.09;;;2.61;79.52
51359;BME280;37448;51.588;7.248;2023-04-27T01:59:13;101424.88;;;2.57;78.86
51359;BME280;37448;51.588;7.248;2023-04-27T02:01:14;101424.06;;;2.60;79.11
51359;BME280;37448;51.588;7.248;2023-04-27T02:03:14;101415.38;;;2.54;78.55
51359;BME280;37448;51.588;7.248;2023-04-27T02:05:15;101424.16;;;2.63;78.70
51359;BME280;37448;51.588;7.248;2023-04-27T02:07:16;101431.88;;;2.63;78.88
51359;BME280;37448;51.588;7.248;2023-04-27T02:09:16;101431.91;;;2.64;78.96
51359;BME280;37448;51.588;7.248;2023-04-27T02:11:17;101427.63;;;2.65;78.63
51359;BME280;37448;51.588;7.248;2023-04-27T02:13:17;101423.25;;;2.61;78.69
51359;BME280;37448;51.588;7.248;2023-04-27T02:15:17;101425.81;;;2.61;78.37
51359;BME280;37448;51.588;7.248;2023-04-27T02:17:18;101425.75;;;2.57;78.70
51359;BME280;37448;51.588;7.248;2023-04-27T02:19:19;101426.59;;;2.56;79.23
51359;BME280;37448;51.588;7.248;2023-04-27T02:21:19;101427.41;;;2.55;79.04
51359;BME280;37448;51.588;7.248;2023-04-27T02:23:20;101428.25;;;2.54;79.35
51359;BME280;37448;51.588;7.248;2023-04-27T02:25:21;101427.31;;;2.52;79.76
51359;BME280;37448;51.588;7.248;2023-04-27T02:27:21;101430.66;;;2.48;79.55
51359;BME280;37448;51.588;7.248;2023-04-27T02:29:22;101429.75;;;2.44;79.25
51359;BME280;37448;51.588;7.248;2023-04-27T02:31:22;101430.53;;;2.42;79.25
51359;BME280;37448;51.588;7.248;2023-04-27T02:33:22;101424.47;;;2.40;79.50
51359;BME280;37448;51.588;7.248;2023-04-27T02:35:24;101427.03;;;2.40;79.38
51359;BME280;37448;51.588;7.248;2023-04-27T02:37:25;101423.47;;;2.35;79.37
51359;BME280;37448;51.588;7.248;2023-04-27T02:39:25;101412.19;;;2.31;79.86
51359;BME280;37448;51.588;7.248;2023-04-27T02:41:26;101416.41;;;2.27;79.65
51359;BME280;37448;51.588;7.248;2023-04-27T02:43:27;101419.81;;;2.26;79.75
51359;BME280;37448;51.588;7.248;2023-04-27T02:45:28;101409.44;;;2.23;79.80
51359;BME280;37448;51.588;7.248;2023-04-27T02:47:28;101414.50;;;2.20;79.43
51359;BME280;37448;51.588;7.248;2023-04-27T02:49:29;101406.75;;;2.19;80.26
51359;BME280;37448;51.588;7.248;2023-04-27T02:51:29;101407.53;;;2.16;79.24
51359;BME280;37448;51.588;7.248;2023-04-27T02:53:29;101405.72;;;2.12;79.99
51359;BME280;37448;51.588;7.248;2023-04-27T02:55:30;101410.81;;;2.09;79.93
51359;BME280;37448;51.588;7.248;2023-04-27T02:57:31;101409.00;;;2.06;80.10
51359;BME280;37448;51.588;7.248;2023-04-27T02:59:31;101413.19;;;2.03;80.17
51359;BME280;37448;51.588;7.248;2023-04-27T03:01:32;101413.94;;;1.98;79.86
51359;BME280;37448;51.588;7.248;2023-04-27T03:03:32;101413.88;;;1.95;80.35
51359;BME280;37448;51.588;7.248;2023-04-27T03:05:32;101412.06;;;1.91;80.08
51359;BME280;37448;51.588;7.248;2023-04-27T03:07:33;101405.84;;;1.84;80.22
51359;BME280;37448;51.588;7.248;2023-04-27T03:09:33;101403.16;;;1.80;80.09
51359;BME280;37448;51.588;7.248;2023-04-27T03:11:34;101401.38;;;1.77;79.95
51359;BME280;37448;51.588;7.248;2023-04-27T03:13:35;101402.09;;;1.71;79.52
51359;BME280;37448;51.588;7.248;2023-04-27T03:15:40;101395.94;;;1.66;79.66
51359;BME280;37448;51.588;7.248;2023-04-27T03:17:41;101395.78;;;1.60;79.80
51359;BME280;37448;51.588;7.248;2023-04-27T03:19:41;101392.19;;;1.55;80.24
51359;BME280;37448;51.588;7.248;2023-04-27T03:21:42;101388.66;;;1.51;80.46
51359;BME280;37448;51.588;7.248;2023-04-27T03:23:42;101400.63;;;1.49;80.13
51359;BME280;37448;51.588;7.248;2023-04-27T03:25:43;101398.00;;;1.48;80.29
51359;BME280;37448;51.588;7.248;2023-04-27T03:27:43;101397.91;;;1.45;80.67
51359;BME280;37448;51.588;7.248;2023-04-27T03:29:45;101400.41;;;1.41;80.23
51359;BME280;37448;51.588;7.248;2023-04-27T03:31:45;101388.31;;;1.39;80.74
51359;BME280;37448;51.588;7.248;2023-04-27T03:33:46;101394.34;;;1.39;80.55
51359;BME280;37448;51.588;7.248;2023-04-27T03:35:54;101401.19;;;1.39;80.71
51359;BME280;37448;51.588;7.248;2023-04-27T03:37:55;101400.25;;;1.35;80.89
51359;BME280;37448;51.588;7.248;2023-04-27T03:39:55;101396.69;;;1.32;80.74
51359;BME280;37448;51.588;7.248;2023-04-27T03:41:55;101395.72;;;1.28;80.57
51359;BME280;37448;51.588;7.248;2023-04-27T03:43:56;101399.03;;;1.24;80.65
51359;BME280;37448;51.588;7.248;2023-04-27T03:45:57;101406.66;;;1.21;80.71
51359;BME280;37448;51.588;7.248;2023-04-27T03:47:57;101405.00;;;1.23;81.13
51359;BME280;37448;51.588;7.248;2023-04-27T03:49:58;101406.81;;;1.25;81.51
51359;BME280;37448;51.588;7.248;2023-04-27T03:51:59;101405.84;;;1.22;81.41
51359;BME280;37448;51.588;7.248;2023-04-27T03:53:59;101416.19;;;1.23;81.35
51359;BME280;37448;51.588;7.248;2023-04-27T03:56:01;101416.97;;;1.21;81.45
51359;BME280;37448;51.588;7.248;2023-04-27T03:58:02;101421.34;;;1.23;81.62
51359;BME280;37448;51.588;7.248;2023-04-27T04:00:03;101413.56;;;1.22;81.72
51359;BME280;37448;51.588;7.248;2023-04-27T04:02:13;101418.72;;;1.22;81.79
51359;BME280;37448;51.588;7.248;2023-04-27T04:04:13;101423.84;;;1.22;81.35
51359;BME280;37448;51.588;7.248;2023-04-27T04:06:15;101423.78;;;1.19;81.39
51359;BME280;37448;51.588;7.248;2023-04-27T04:08:16;101427.16;;;1.18;81.41
51359;BME280;37448;51.588;7.248;2023-04-27T04:10:17;101428.84;;;1.16;82.00
51359;BME280;37448;51.588;7.248;2023-04-27T04:12:18;101424.50;;;1.14;81.84
51359;BME280;37448;51.588;7.248;2023-04-27T04:14:19;101427.00;;;1.11;81.44
51359;BME280;37448;51.588;7.248;2023-04-27T04:16:19;101438.94;;;1.09;81.78
51359;BME280;37448;51.588;7.248;2023-04-27T04:18:20;101435.44;;;1.07;81.38
51359;BME280;37448;51.588;7.248;2023-04-27T04:20:20;101440.56;;;1.07;81.72
51359;BME280;37448;51.588;7.248;2023-04-27T04:22:21;101435.44;;;1.07;82.00
51359;BME280;37448;51.588;7.248;2023-04-27T04:24:22;101432.75;;;1.04;81.98
51359;BME280;37448;51.588;7.248;2023-04-27T04:26:22;101431.84;;;1.02;81.68
51359;BME280;37448;51.588;7.248;2023-04-27T04:28:23;101433.56;;;1.02;81.59
51359;BME280;37448;51.588;7.248;2023-04-27T04:30:24;101435.16;;;0.98;81.32
51359;BME280;37448;51.588;7.248;2023-04-27T04:32:26;101438.56;;;0.97;81.37
51359;BME280;37448;51.588;7.248;2023-04-27T04:34:30;101441.94;;;0.96;81.88
51359;BME280;37448;51.588;7.248;2023-04-27T04:36:31;101435.06;;;0.95;82.16
51359;BME280;37448;51.588;7.248;2023-04-27T04:38:31;101439.28;;;0.93;82.11
51359;BME280;37448;51.588;7.248;2023-04-27T04:40:33;101440.22;;;0.95;81.96
51359;BME280;37448;51.588;7.248;2023-04-27T04:42:37;101439.38;;;0.96;82.31
51359;BME280;37448;51.588;7.248;2023-04-27T04:44:38;101440.31;;;0.98;82.60
51359;BME280;37448;51.588;7.248;2023-04-27T04:46:38;101445.44;;;0.98;82.81
51359;BME280;37448;51.588;7.248;2023-04-27T04:48:39;101449.75;;;0.99;83.21
51359;BME280;37448;51.588;7.248;2023-04-27T04:50:39;101445.63;;;1.04;83.43
51359;BME280;37448;51.588;7.248;2023-04-27T04:52:41;101441.31;;;1.03;83.36
51359;BME280;37448;51.588;7.248;2023-04-27T04:54:41;101438.94;;;1.09;83.41
51359;BME280;37448;51.588;7.248;2023-04-27T04:56:41;101439.91;;;1.13;83.56
51359;BME280;37448;51.588;7.248;2023-04-27T04:58:42;101446.84;;;1.16;83.01
51359;BME280;37448;51.588;7.248;2023-04-27T05:00:43;101446.09;;;1.20;83.78
51359;BME280;37448;51.588;7.248;2023-04-27T05:02:43;101441.94;;;1.23;83.42
51359;BME280;37448;51.588;7.248;2023-04-27T05:04:43;101445.53;;;1.30;83.80
51359;BME280;37448;51.588;7.248;2023-04-27T05:06:44;101448.16;;;1.32;83.77
51359;BME280;37448;51.588;7.248;2023-04-27T05:08:45;101443.16;;;1.36;83.86
51359;BME280;37448;51.588;7.248;2023-04-27T05:10:49;101448.50;;;1.42;83.78
51359;BME280;37448;51.588;7.248;2023-04-27T05:12:50;101444.31;;;1.46;83.82
51359;BME280;37448;51.588;7.248;2023-04-27T05:14:50;101457.44;;;1.55;83.73
51359;BME280;37448;51.588;7.248;2023-04-27T05:16:51;101457.56;;;1.60;83.71
51359;BME280;37448;51.588;7.248;2023-04-27T05:18:51;101457.75;;;1.66;84.14
51359;BME280;37448;51.588;7.248;2023-04-27T05:20:53;101462.22;;;1.74;83.72
51359;BME280;37448;51.588;7.248;2023-04-27T05:22:54;101461.56;;;1.81;83.79
51359;BME280;37448;51.588;7.248;2023-04-27T05:24:54;101460.03;;;1.88;83.53
51359;BME280;37448;51.588;7.248;2023-04-27T05:26:56;101466.22;;;1.94;83.17
51359;BME280;37448;51.588;7.248;2023-04-27T05:28:56;101465.56;;;2.01;83.81
51359;BME280;37448;51.588;7.248;2023-04-27T05:30:56;101470.00;;;2.07;83.81
51359;BME280;37448;51.588;7.248;2023-04-27T05:32:57;101460.81;;;2.17;83.88
51359;BME280;37448;51.588;7.248;2023-04-27T05:34:57;101465.38;;;2.27;83.71
51359;BME280;37448;51.588;7.248;2023-04-27T05:36:58;101471.63;;;2.36;83.09
51359;BME280;37448;51.588;7.248;2023-04-27T05:38:58;101476.97;;;2.43;83.16
51359;BME280;37448;51.588;7.248;2023-04-27T05:40:58;101478.91;;;2.52;82.57
51359;BME280;37448;51.588;7.248;2023-04-27T05:42:59;101480.84;;;2.61;82.71
51359;BME280;37448;51.588;7.248;2023-04-27T05:45:02;101489.69;;;2.71;83.33
51359;BME280;37448;51.588;7.248;2023-04-27T05:47:03;101497.66;;;2.80;83.34
51359;BME280;37448;51.588;7.248;2023-04-27T05:49:03;101494.34;;;2.86;82.20
51359;BME280;37448;51.588;7.248;2023-04-27T05:51:04;101496.25;;;2.93;82.09
51359;BME280;37448;51.588;7.248;2023-04-27T05:53:04;101503.34;;;3.04;82.33
51359;BME280;37448;51.588;7.248;2023-04-27T05:55:05;101500.91;;;3.08;80.93
51359;BME280;37448;51.588;7.248;2023-04-27T05:57:07;101503.66;;;3.16;80.42
51359;BME280;37448;51.588;7.248;2023-04-27T05:59:07;101498.75;;;3.27;81.78
51359;BME280;37448;51.588;7.248;2023-04-27T06:01:08;101497.59;;;3.55;81.35
51359;BME280;37448;51.588;7.248;2023-04-27T06:03:08;101502.03;;;4.02;80.77
51359;BME280;37448;51.588;7.248;2023-04-27T06:05:08;101502.13;;;4.56;80.60
51359;BME280;37448;51.588;7.248;2023-04-27T06:07:10;101498.69;;;5.13;79.42
51359;BME280;37448;51.588;7.248;2023-04-27T06:09:11;101500.28;;;5.66;76.42
51359;BME280;37448;51.588;7.248;2023-04-27T06:11:11;101498.22;;;6.08;70.36
51359;BME280;37448;51.588;7.248;2023-04-27T06:13:11;101504.75;;;6.57;73.62
51359;BME280;37448;51.588;7.248;2023-04-27T06:15:12;101506.78;;;6.98;70.28
51359;BME280;37448;51.588;7.248;2023-04-27T06:17:12;101499.94;;;7.11;64.88
51359;BME280;37448;51.588;7.248;2023-04-27T06:19:13;101502.81;;;7.55;64.74
51359;BME280;37448;51.588;7.248;2023-04-27T06:21:13;101506.41;;;7.89;64.81
51359;BME280;37448;51.588;7.248;2023-04-27T06:23:14;101502.19;;;8.24;63.58
51359;BME280;37448;51.588;7.248;2023-04-27T06:25:14;101503.13;;;8.54;63.44
51359;BME280;37448;51.588;7.248;2023-04-27T06:27:15;101508.34;;;8.59;59.84
51359;BME280;37448;51.588;7.248;2023-04-27T06:29:15;101502.28;;;8.86;61.29
51359;BME280;37448;51.588;7.248;2023-04-27T06:31:16;101513.53;;;8.95;61.04
51359;BME280;37448;51.588;7.248;2023-04-27T06:33:16;101512.69;;;8.94;57.31
51359;BME280;37448;51.588;7.248;2023-04-27T06:35:17;101504.81;;;9.28;59.43
51359;BME280;37448;51.588;7.248;2023-04-27T06:37:17;101503.09;;;9.29;55.85
51359;BME280;37448;51.588;7.248;2023-04-27T06:39:18;101500.50;;;8.98;54.02
51359;BME280;37448;51.588;7.248;2023-04-27T06:41:18;101498.72;;;9.25;54.82
51359;BME280;37448;51.588;7.248;2023-04-27T06:43:18;101501.31;;;9.37;55.18
51359;BME280;37448;51.588;7.248;2023-04-27T06:45:19;101501.22;;;9.60;57.25
51359;BME280;37448;51.588;7.248;2023-04-27T06:47:20;101503.81;;;9.68;54.39
51359;BME280;37448;51.588;7.248;2023-04-27T06:49:20;101491.66;;;9.66;52.94
51359;BME280;37448;51.588;7.248;2023-04-27T06:51:20;101499.31;;;9.98;53.18
51359;BME280;37448;51.588;7.248;2023-04-27T06:53:21;101496.66;;;10.11;54.49
51359;BME280;37448;51.588;7.248;2023-04-27T06:55:21;101491.34;;;10.23;52.03
51359;BME280;37448;51.588;7.248;2023-04-27T06:57:21;101491.22;;;10.45;53.54
51359;BME280;37448;51.588;7.248;2023-04-27T06:59:22;101490.41;;;10.38;50.06
51359;BME280;37448;51.588;7.248;2023-04-27T07:01:22;101491.03;;;10.70;50.03
51359;BME280;37448;51.588;7.248;2023-04-27T07:03:23;101487.34;;;10.94;49.35
51359;BME280;37448;51.588;7.248;2023-04-27T07:05:23;101484.84;;;10.82;49.11
51359;BME280;37448;51.588;7.248;2023-04-27T07:07:24;101484.88;;;10.80;47.36
51359;BME280;37448;51.588;7.248;2023-04-27T07:09:24;101485.63;;;10.91;48.76
51359;BME280;37448;51.588;7.248;2023-04-27T07:11:24;101477.75;;;10.96;48.61
51359;BME280;37448;51.588;7.248;2023-04-27T07:13:25;101483.91;;;10.90;45.67
51359;BME280;37448;51.588;7.248;2023-04-27T07:15:25;101478.59;;;10.97;47.03
51359;BME280;37448;51.588;7.248;2023-04-27T07:17:26;101482.50;;;11.41;48.83
51359;BME280;37448;51.588;7.248;2023-04-27T07:19:26;101478.31;;;11.28;45.92
51359;BME280;37448;51.588;7.248;2023-04-27T07:21:26;101488.91;;;11.12;45.16
51359;BME280;37448;51.588;7.248;2023-04-27T07:23:27;101481.31;;;11.69;45.15
51359;BME280;37448;51.588;7.248;2023-04-27T07:25:28;101472.63;;;11.65;44.59
51359;BME280;37448;51.588;7.248;2023-04-27T07:27:28;101478.59;;;11.76;44.38
51359;BME280;37448;51.588;7.248;2023-04-27T07:29:31;101477.56;;;11.88;43.51
51359;BME280;37448;51.588;7.248;2023-04-27T07:31:31;101473.25;;;11.84;42.29
51359;BME280;37448;51.588;7.248;2023-04-27T07:33:33;101479.56;;;12.35;46.35
51359;BME280;37448;51.588;7.248;2023-04-27T07:35:33;101480.09;;;11.96;41.94
51359;BME280;37448;51.588;7.248;2023-04-27T07:37:36;101479.31;;;11.88;41.47
51359;BME280;37448;51.588;7.248;2023-04-27T07:39:37;101470.84;;;11.70;42.25
51359;BME280;37448;51.588;7.248;2023-04-27T07:41:37;101471.81;;;12.27;44.18
51359;BME280;37448;51.588;7.248;2023-04-27T07:43:38;101475.03;;;12.45;42.66
51359;BME280;37448;51.588;7.248;2023-04-27T07:45:39;101482.91;;;12.43;40.51
51359;BME280;37448;51.588;7.248;2023-04-27T07:47:40;101473.75;;;13.19;43.01
51359;BME280;37448;51.588;7.248;2023-04-27T07:49:41;101478.53;;;12.96;42.10
51359;BME280;37448;51.588;7.248;2023-04-27T07:51:44;101470.56;;;13.02;39.67
51359;BME280;37448;51.588;7.248;2023-04-27T07:53:45;101477.53;;;13.03;39.73
51359;BME280;37448;51.588;7.248;2023-04-27T07:55:45;101480.66;;;13.24;41.05
51359;BME280;37448;51.588;7.248;2023-04-27T07:57:46;101477.78;;;13.36;39.42
51359;BME280;37448;51.588;7.248;2023-04-27T07:59:46;101479.03;;;13.16;38.49
51359;BME280;37448;51.588;7.248;2023-04-27T08:01:46;101469.63;;;13.52;37.87
51359;BME280;37448;51.588;7.248;2023-04-27T08:03:47;101479.88;;;13.64;37.08
51359;BME280;37448;51.588;7.248;2023-04-27T08:05:47;101472.91;;;13.17;37.32
51359;BME280;37448;51.588;7.248;2023-04-27T08:07:48;101468.59;;;13.13;37.79
51359;BME280;37448;51.588;7.248;2023-04-27T08:09:51;101476.22;;;13.71;36.60
51359;BME280;37448;51.588;7.248;2023-04-27T08:11:51;101475.91;;;13.87;35.93
51359;BME280;37448;51.588;7.248;2023-04-27T08:13:52;101479.47;;;13.83;39.56
51359;BME280;37448;51.588;7.248;2023-04-27T08:15:52;101476.25;;;14.11;38.21
51359;BME280;37448;51.588;7.248;2023-04-27T08:17:57;101481.09;;;13.90;34.77
51359;BME280;37448;51.588;7.248;2023-04-27T08:19:57;101475.28;;;14.15;36.21
51359;BME280;37448;51.588;7.248;2023-04-27T08:21:58;101469.03;;;13.80;34.90
51359;BME280;37448;51.588;7.248;2023-04-27T08:23:58;101461.59;;;14.00;36.05
51359;BME280;37448;51.588;7.248;2023-04-27T08:25:58;101465.03;;;14.02;35.79
51359;BME280;37448;51.588;7.248;2023-04-27T08:27:59;101469.69;;;13.91;37.05
51359;BME280;37448;51.588;7.248;2023-04-27T08:29:59;101463.94;;;14.13;38.51
51359;BME280;37448;51.588;7.248;2023-04-27T08:32:03;101458.94;;;14.38;36.88
51359;BME280;37448;51.588;7.248;2023-04-27T08:34:03;101468.75;;;14.68;34.52
51359;BME280;37448;51.588;7.248;2023-04-27T08:36:04;101469.25;;;14.82;34.83
51359;BME280;37448;51.588;7.248;2023-04-27T08:38:04;101462.72;;;15.30;37.11
51359;BME280;37448;51.588;7.248;2023-04-27T08:40:06;101458.13;;;15.69;35.18
51359;BME280;37448;51.588;7.248;2023-04-27T08:42:10;101461.13;;;15.56;35.23
51359;BME280;37448;51.588;7.248;2023-04-27T08:44:11;101458.75;;;15.15;32.75
51359;BME280;37448;51.588;7.248;2023-04-27T08:46:11;101454.53;;;15.41;34.68
51359;BME280;37448;51.588;7.248;2023-04-27T08:48:12;101453.50;;;15.47;33.96
51359;BME280;37448;51.588;7.248;2023-04-27T08:50:12;101466.97;;;15.36;33.36
51359;BME280;37448;51.588;7.248;2023-04-27T08:52:14;101463.56;;;15.31;35.54
51359;BME280;37448;51.588;7.248;2023-04-27T08:54:14;101461.56;;;15.41;33.63
51359;BME280;37448;51.588;7.248;2023-04-27T08:56:16;101462.56;;;15.36;33.67
51359;BME280;37448;51.588;7.248;2023-04-27T08:58:16;101454.50;;;14.42;33.81
51359;BME280;37448;51.588;7.248;2023-04-27T09:00:17;101456.66;;;13.86;33.96
51359;BME280;37448;51.588;7.248;2023-04-27T09:02:19;101460.78;;;14.72;32.37
51359;BME280;37448;51.588;7.248;2023-04-27T09:04:19;101462.72;;;14.99;32.73
51359;BME280;37448;51.588;7.248;2023-04-27T09:06:29;101449.81;;;15.53;32.22
51359;BME280;37448;51.588;7.248;2023-04-27T09:08:47;101447.97;;;16.15;33.69
51359;BME280;37448;51.588;7.248;2023-04-27T09:10:49;101441.88;;;15.24;29.63
51359;BME280;37448;51.588;7.248;2023-04-27T09:12:58;101443.06;;;15.44;32.18
51359;BME280;37448;51.588;7.248;2023-04-27T09:15:01;101441.16;;;15.49;31.05
51359;BME280;37448;51.588;7.248;2023-04-27T09:17:05;101455.84;;;15.26;31.04
51359;BME280;37448;51.588;7.248;2023-04-27T09:19:05;101446.75;;;15.05;32.75
51359;BME280;37448;51.588;7.248;2023-04-27T09:21:06;101449.22;;;14.78;31.33
51359;BME280;37448;51.588;7.248;2023-04-27T09:23:06;101443.28;;;14.33;30.89
51359;BME280;37448;51.588;7.248;2023-04-27T09:25:07;101439.72;;;14.38;30.97
51359;BME280;37448;51.588;7.248;2023-04-27T09:27:07;101430.59;;;14.87;30.45
51359;BME280;37448;51.588;7.248;2023-04-27T09:29:08;101428.63;;;13.46;32.45
51359;BME280;37448;51.588;7.248;2023-04-27T09:31:08;101426.84;;;13.89;32.47
51359;BME280;37448;51.588;7.248;2023-04-27T09:33:11;101429.00;;;14.80;32.76
51359;BME280;37448;51.588;7.248;2023-04-27T09:35:21;101424.38;;;13.40;31.54
51359;BME280;37448;51.588;7.248;2023-04-27T09:37:21;101425.00;;;13.07;33.10
51359;BME280;37448;51.588;7.248;2023-04-27T09:39:22;101425.50;;;14.45;32.37
51359;BME280;37448;51.588;7.248;2023-04-27T09:41:22;101416.13;;;14.71;30.21
51359;BME280;37448;51.588;7.248;2023-04-27T09:43:23;101424.56;;;14.82;30.90
51359;BME280;37448;51.588;7.248;2023-04-27T09:45:24;101419.25;;;14.85;30.04
51359;BME280;37448;51.588;7.248;2023-04-27T09:47:25;101411.75;;;15.34;30.75
51359;BME280;37448;51.588;7.248;2023-04-27T09:49:27;101417.25;;;14.95;29.70
51359;BME280;37448;51.588;7.248;2023-04-27T09:51:28;101418.25;;;14.55;30.25
51359;BME280;37448;51.588;7.248;2023-04-27T09:55:38;101410.69;;;15.10;28.85
51359;BME280;37448;51.588;7.248;2023-04-27T10:05:37;101408.16;;;15.37;30.36
51359;BME280;37448;51.588;7.248;2023-04-27T10:07:42;101410.56;;;15.73;28.11
51359;BME280;37448;51.588;7.248;2023-04-27T10:09:46;101408.00;;;15.12;28.05
51359;BME280;37448;51.588;7.248;2023-04-27T10:11:48;101407.88;;;16.05;29.55
51359;BME280;37448;51.588;7.248;2023-04-27T10:13:53;101406.16;;;15.45;29.82
51359;BME280;37448;51.588;7.248;2023-04-27T10:15:53;101397.97;;;14.93;29.60
51359;BME280;37448;51.588;7.248;2023-04-27T10:17:54;101405.63;;;15.34;30.28
51359;BME280;37448;51.588;7.248;2023-04-27T10:20:00;101405.00;;;15.56;27.43
51359;BME280;37448;51.588;7.248;2023-04-27T10:22:01;101400.13;;;16.00;28.36
51359;BME280;37448;51.588;7.248;2023-04-27T10:24:07;101397.75;;;15.62;27.50
51359;BME280;37448;51.588;7.248;2023-04-27T10:26:08;101387.91;;;15.09;28.35
51359;BME280;37448;51.588;7.248;2023-04-27T10:28:14;101387.66;;;15.77;27.98
51359;BME280;37448;51.588;7.248;2023-04-27T10:30:17;101380.47;;;15.54;26.61
51359;BME280;37448;51.588;7.248;2023-04-27T10:32:25;101383.84;;;15.59;28.53
51359;BME280;37448;51.588;7.248;2023-04-27T10:34:26;101380.44;;;15.55;27.82
51359;BME280;37448;51.588;7.248;2023-04-27T10:36:33;101380.69;;;16.04;28.10
51359;BME280;37448;51.588;7.248;2023-04-27T10:38:39;101370.53;;;15.92;26.75
51359;BME280;37448;51.588;7.248;2023-04-27T10:40:39;101379.00;;;15.45;27.82
51359;BME280;37448;51.588;7.248;2023-04-27T10:42:40;101377.03;;;15.21;27.49
51359;BME280;37448;51.588;7.248;2023-04-27T10:44:41;101368.50;;;15.13;27.36
51359;BME280;37448;51.588;7.248;2023-04-27T10:46:55;101370.19;;;15.46;27.57
51359;BME280;37448;51.588;7.248;2023-04-27T10:48:55;101367.16;;;15.87;25.88